sensor_id;sensor_type;location;lat;lon;timestamp;temperature;humidity
38090;DHT22;23904;52.322;10.232;2023-06-24T00:01:14;15.50;99.90
38090;DHT22;23904;52.322;10.232;2023-06-24T00:03:40;15.50;99.90
38090;DHT22;23904;52.322;10.232;2023-06-24T00:06:06;15.50;99.90
38090;DHT22;23904;52.322;10.232;2023-06-24T00:08:32;15.50;99.90
38090;DHT22;23904;52.322;10.232;2023-06-24T00:11:02;15.50;99.90
38090;DHT22;23904;52.322;10.232;2023-06-24T00:13:28;15.40;99.90
38090;DHT22;23904;52.322;10.232;2023-06-24T00:15:56;15.30;99.90
38090;DHT22;23904;52.322;10.232;2023-06-24T00:18:22;15.40;99.90
38090;DHT22;23904;52.322;10.232;2023-06-24T00:20:50;15.30;99.90
38090;DHT22;23904;52.322;10.232;2023-06-24T00:23:18;15.30;99.90
38090;DHT22;23904;52.322;10.232;2023-06-24T00:25:50;15.30;99.90
38090;DHT22;23904;52.322;10.232;2023-06-24T00:28:17;15.30;99.90
38090;DHT22;23904;52.322;10.232;2023-06-24T00:30:42;15.20;99.90
38090;DHT22;23904;52.322;10.232;2023-06-24T00:33:08;15.30;99.90
38090;DHT22;23904;52.322;10.232;2023-06-24T00:35:36;15.20;99.90
38090;DHT22;23904;52.322;10.232;2023-06-24T00:38:03;15.20;99.90
38090;DHT22;23904;52.322;10.232;2023-06-24T00:40:29;15.20;99.90
38090;DHT22;23904;52.322;10.232;2023-06-24T00:42:54;15.20;99.90
38090;DHT22;23904;52.322;10.232;2023-06-24T00:45:23;15.20;99.90
38090;DHT22;23904;52.322;10.232;2023-06-24T00:47:49;15.20;99.90
38090;DHT22;23904;52.322;10.232;2023-06-24T00:50:17;15.30;99.90
38090;DHT22;23904;52.322;10.232;2023-06-24T00:52:42;15.20;99.90
38090;DHT22;23904;52.322;10.232;2023-06-24T00:55:12;15.20;99.90
38090;DHT22;23904;52.322;10.232;2023-06-24T00:57:41;15.20;99.90
38090;DHT22;23904;52.322;10.232;2023-06-24T01:00:09;15.10;99.90
38090;DHT22;23904;52.322;10.232;2023-06-24T01:02:39;15.10;99.90
38090;DHT22;23904;52.322;10.232;2023-06-24T01:05:10;15.10;99.90
38090;DHT22;23904;52.322;10.232;2023-06-24T01:07:37;15.10;99.90
38090;DHT22;23904;52.322;10.232;2023-06-24T01:10:05;15.10;99.90
38090;DHT22;23904;52.322;10.232;2023-06-24T01:12:33;15.10;99.90
38090;DHT22;23904;52.322;10.232;2023-06-24T01:15:00;15.10;99.90
38090;DHT22;23904;52.322;10.232;2023-06-24T01:18:01;15.10;99.90
38090;DHT22;23904;52.322;10.232;2023-06-24T01:20:40;15.10;99.90
38090;DHT22;23904;52.322;10.232;2023-06-24T01:23:24;15.10;99.90
38090;DHT22;23904;52.322;10.232;2023-06-24T01:26:26;15.10;99.90
38090;DHT22;23904;52.322;10.232;2023-06-24T01:32:43;15.00;99.90
38090;DHT22;23904;52.322;10.232;2023-06-24T01:35:18;15.00;99.90
38090;DHT22;23904;52.322;10.232;2023-06-24T01:37:53;15.00;99.90
38090;DHT22;23904;52.322;10.232;2023-06-24T01:40:28;15.00;99.90
38090;DHT22;23904;52.322;10.232;2023-06-24T01:43:08;15.00;99.90
38090;DHT22;23904;52.322;10.232;2023-06-24T01:45:42;15.00;99.90
38090;DHT22;23904;52.322;10.232;2023-06-24T01:48:28;15.00;99.90
38090;DHT22;23904;52.322;10.232;2023-06-24T01:51:02;14.90;99.90
38090;DHT22;23904;52.322;10.232;2023-06-24T01:53:34;14.90;99.90
38090;DHT22;23904;52.322;10.232;2023-06-24T01:56:05;14.90;99.90
38090;DHT22;23904;52.322;10.232;2023-06-24T01:58:32;14.90;99.90
38090;DHT22;23904;52.322;10.232;2023-06-24T02:01:01;14.80;99.90
38090;DHT22;23904;52.322;10.232;2023-06-24T02:03:28;14.80;99.90
38090;DHT22;23904;52.322;10.232;2023-06-24T02:05:56;14.70;99.90
38090;DHT22;23904;52.322;10.232;2023-06-24T02:08:22;14.70;99.90
38090;DHT22;23904;52.322;10.232;2023-06-24T02:10:49;14.70;99.90
38090;DHT22;23904;52.322;10.232;2023-06-24T02:13:16;14.70;99.90
38090;DHT22;23904;52.322;10.232;2023-06-24T02:15:43;14.70;99.90
38090;DHT22;23904;52.322;10.232;2023-06-24T02:18:12;14.60;99.90
38090;DHT22;23904;52.322;10.232;2023-06-24T02:20:40;14.60;99.90
38090;DHT22;23904;52.322;10.232;2023-06-24T02:23:07;14.60;99.90
38090;DHT22;23904;52.322;10.232;2023-06-24T02:25:34;14.50;99.90
38090;DHT22;23904;52.322;10.232;2023-06-24T02:28:01;14.50;99.90
38090;DHT22;23904;52.322;10.232;2023-06-24T02:30:26;14.50;99.90
38090;DHT22;23904;52.322;10.232;2023-06-24T02:32:53;14.50;99.90
38090;DHT22;23904;52.322;10.232;2023-06-24T02:35:19;14.40;99.90
38090;DHT22;23904;52.322;10.232;2023-06-24T02:37:45;14.30;99.90
38090;DHT22;23904;52.322;10.232;2023-06-24T02:40:11;14.30;99.90
38090;DHT22;23904;52.322;10.232;2023-06-24T02:42:37;14.30;99.90
38090;DHT22;23904;52.322;10.232;2023-06-24T02:45:03;14.20;99.90
38090;DHT22;23904;52.322;10.232;2023-06-24T02:47:30;14.20;99.90
38090;DHT22;23904;52.322;10.232;2023-06-24T02:49:56;14.10;99.90
38090;DHT22;23904;52.322;10.232;2023-06-24T02:52:23;14.20;99.90
38090;DHT22;23904;52.322;10.232;2023-06-24T02:54:49;14.20;99.90
38090;DHT22;23904;52.322;10.232;2023-06-24T02:57:15;14.20;99.90
38090;DHT22;23904;52.322;10.232;2023-06-24T02:59:41;14.20;99.90
38090;DHT22;23904;52.322;10.232;2023-06-24T03:02:07;14.30;99.90
38090;DHT22;23904;52.322;10.232;2023-06-24T03:04:33;14.20;99.90
38090;DHT22;23904;52.322;10.232;2023-06-24T03:06:59;14.30;99.90
38090;DHT22;23904;52.322;10.232;2023-06-24T03:09:26;14.30;99.90
38090;DHT22;23904;52.322;10.232;2023-06-24T03:11:52;14.30;99.90
38090;DHT22;23904;52.322;10.232;2023-06-24T03:14:18;14.20;99.90
38090;DHT22;23904;52.322;10.232;2023-06-24T03:16:44;14.30;99.90
38090;DHT22;23904;52.322;10.232;2023-06-24T03:19:10;14.20;99.90
38090;DHT22;23904;52.322;10.232;2023-06-24T03:21:35;14.20;99.90
38090;DHT22;23904;52.322;10.232;2023-06-24T03:24:01;14.20;99.90
38090;DHT22;23904;52.322;10.232;2023-06-24T03:26:38;14.20;99.90
38090;DHT22;23904;52.322;10.232;2023-06-24T03:29:05;14.20;99.90
38090;DHT22;23904;52.322;10.232;2023-06-24T03:31:33;14.20;99.90
38090;DHT22;23904;52.322;10.232;2023-06-24T03:33:58;14.20;99.90
38090;DHT22;23904;52.322;10.232;2023-06-24T03:36:24;14.20;99.90
38090;DHT22;23904;52.322;10.232;2023-06-24T03:38:50;14.20;99.90
38090;DHT22;23904;52.322;10.232;2023-06-24T03:41:16;14.20;99.90
38090;DHT22;23904;52.322;10.232;2023-06-24T03:43:42;14.10;99.90
38090;DHT22;23904;52.322;10.232;2023-06-24T03:46:08;14.10;99.90
38090;DHT22;23904;52.322;10.232;2023-06-24T03:48:35;14.10;99.90
38090;DHT22;23904;52.322;10.232;2023-06-24T03:51:00;14.10;99.90
38090;DHT22;23904;52.322;10.232;2023-06-24T03:53:26;14.10;99.90
38090;DHT22;23904;52.322;10.232;2023-06-24T03:55:51;14.20;99.90
38090;DHT22;23904;52.322;10.232;2023-06-24T03:58:17;14.20;99.90
38090;DHT22;23904;52.322;10.232;2023-06-24T04:00:43;14.30;99.90
38090;DHT22;23904;52.322;10.232;2023-06-24T04:03:10;14.30;99.90
38090;DHT22;23904;52.322;10.232;2023-06-24T04:05:35;14.30;99.90
38090;DHT22;23904;52.322;10.232;2023-06-24T04:08:01;14.40;99.90
38090;DHT22;23904;52.322;10.232;2023-06-24T04:10:32;14.40;99.90
38090;DHT22;23904;52.322;10.232;2023-06-24T04:12:57;14.40;99.90
38090;DHT22;23904;52.322;10.232;2023-06-24T04:15:23;14.40;99.90
38090;DHT22;23904;52.322;10.232;2023-06-24T04:17:49;14.40;99.90
38090;DHT22;23904;52.322;10.232;2023-06-24T04:20:14;14.40;99.90
38090;DHT22;23904;52.322;10.232;2023-06-24T04:22:41;14.40;99.90
38090;DHT22;23904;52.322;10.232;2023-06-24T04:25:07;14.50;99.90
38090;DHT22;23904;52.322;10.232;2023-06-24T04:27:34;14.50;99.90
38090;DHT22;23904;52.322;10.232;2023-06-24T04:30:00;14.60;99.90
38090;DHT22;23904;52.322;10.232;2023-06-24T04:32:26;14.60;99.90
38090;DHT22;23904;52.322;10.232;2023-06-24T04:34:51;14.60;99.90
38090;DHT22;23904;52.322;10.232;2023-06-24T04:37:17;14.70;99.90
38090;DHT22;23904;52.322;10.232;2023-06-24T04:39:43;14.70;99.90
38090;DHT22;23904;52.322;10.232;2023-06-24T04:42:09;14.70;99.90
38090;DHT22;23904;52.322;10.232;2023-06-24T04:44:36;14.80;99.90
38090;DHT22;23904;52.322;10.232;2023-06-24T04:47:01;14.80;99.90
38090;DHT22;23904;52.322;10.232;2023-06-24T04:49:27;14.80;99.90
38090;DHT22;23904;52.322;10.232;2023-06-24T04:51:53;14.70;99.90
38090;DHT22;23904;52.322;10.232;2023-06-24T04:54:19;14.80;99.90
38090;DHT22;23904;52.322;10.232;2023-06-24T04:56:44;14.80;99.90
38090;DHT22;23904;52.322;10.232;2023-06-24T04:59:11;14.80;99.90
38090;DHT22;23904;52.322;10.232;2023-06-24T05:01:36;14.90;99.90
38090;DHT22;23904;52.322;10.232;2023-06-24T05:04:02;14.90;99.90
38090;DHT22;23904;52.322;10.232;2023-06-24T05:06:28;15.00;99.90
38090;DHT22;23904;52.322;10.232;2023-06-24T05:08:54;15.10;99.90
38090;DHT22;23904;52.322;10.232;2023-06-24T05:11:19;15.20;99.90
38090;DHT22;23904;52.322;10.232;2023-06-24T05:13:45;15.20;99.90
38090;DHT22;23904;52.322;10.232;2023-06-24T05:16:10;15.20;99.90
38090;DHT22;23904;52.322;10.232;2023-06-24T05:18:36;15.30;99.90
38090;DHT22;23904;52.322;10.232;2023-06-24T05:21:01;15.40;99.90
38090;DHT22;23904;52.322;10.232;2023-06-24T05:23:27;15.50;99.90
38090;DHT22;23904;52.322;10.232;2023-06-24T05:25:53;15.50;99.90
38090;DHT22;23904;52.322;10.232;2023-06-24T05:28:18;15.60;99.90
38090;DHT22;23904;52.322;10.232;2023-06-24T05:30:45;15.60;99.90
38090;DHT22;23904;52.322;10.232;2023-06-24T05:33:11;15.60;99.90
38090;DHT22;23904;52.322;10.232;2023-06-24T05:35:36;15.60;99.90
38090;DHT22;23904;52.322;10.232;2023-06-24T05:38:05;15.70;99.90
38090;DHT22;23904;52.322;10.232;2023-06-24T05:40:30;15.80;99.90
38090;DHT22;23904;52.322;10.232;2023-06-24T05:42:56;15.80;99.90
38090;DHT22;23904;52.322;10.232;2023-06-24T05:45:21;15.90;99.90
38090;DHT22;23904;52.322;10.232;2023-06-24T05:47:47;15.90;99.90
38090;DHT22;23904;52.322;10.232;2023-06-24T05:50:12;15.90;99.90
38090;DHT22;23904;52.322;10.232;2023-06-24T05:52:38;15.90;99.90
38090;DHT22;23904;52.322;10.232;2023-06-24T05:55:04;16.00;99.90
38090;DHT22;23904;52.322;10.232;2023-06-24T05:57:30;16.00;99.90
38090;DHT22;23904;52.322;10.232;2023-06-24T05:59:55;16.00;99.90
38090;DHT22;23904;52.322;10.232;2023-06-24T06:02:21;16.10;99.90
38090;DHT22;23904;52.322;10.232;2023-06-24T06:04:46;16.10;99.90
38090;DHT22;23904;52.322;10.232;2023-06-24T06:07:12;16.20;99.90
38090;DHT22;23904;52.322;10.232;2023-06-24T06:09:38;16.30;99.90
38090;DHT22;23904;52.322;10.232;2023-06-24T06:12:04;16.40;99.90
38090;DHT22;23904;52.322;10.232;2023-06-24T06:14:30;16.30;99.90
38090;DHT22;23904;52.322;10.232;2023-06-24T06:16:55;16.40;99.90
38090;DHT22;23904;52.322;10.232;2023-06-24T06:19:21;16.40;99.90
38090;DHT22;23904;52.322;10.232;2023-06-24T06:21:46;16.40;99.90
38090;DHT22;23904;52.322;10.232;2023-06-24T06:24:14;16.50;99.90
38090;DHT22;23904;52.322;10.232;2023-06-24T06:26:44;16.60;99.90
38090;DHT22;23904;52.322;10.232;2023-06-24T06:29:10;16.70;99.90
38090;DHT22;23904;52.322;10.232;2023-06-24T06:31:36;16.70;99.90
38090;DHT22;23904;52.322;10.232;2023-06-24T06:34:02;16.80;99.90
38090;DHT22;23904;52.322;10.232;2023-06-24T06:36:28;16.90;99.90
38090;DHT22;23904;52.322;10.232;2023-06-24T06:38:54;17.00;99.90
38090;DHT22;23904;52.322;10.232;2023-06-24T06:41:20;17.00;99.90
38090;DHT22;23904;52.322;10.232;2023-06-24T06:43:50;17.20;99.90
38090;DHT22;23904;52.322;10.232;2023-06-24T06:46:19;17.20;99.90
38090;DHT22;23904;52.322;10.232;2023-06-24T06:48:45;17.30;99.90
38090;DHT22;23904;52.322;10.232;2023-06-24T06:51:10;17.40;99.90
38090;DHT22;23904;52.322;10.232;2023-06-24T06:53:37;17.50;99.90
38090;DHT22;23904;52.322;10.232;2023-06-24T06:56:03;17.60;99.90
38090;DHT22;23904;52.322;10.232;2023-06-24T06:58:28;17.60;99.90
38090;DHT22;23904;52.322;10.232;2023-06-24T07:00:54;17.50;99.90
38090;DHT22;23904;52.322;10.232;2023-06-24T07:03:19;17.60;99.90
38090;DHT22;23904;52.322;10.232;2023-06-24T07:05:45;17.70;99.90
38090;DHT22;23904;52.322;10.232;2023-06-24T07:08:11;17.90;99.90
38090;DHT22;23904;52.322;10.232;2023-06-24T07:10:37;17.90;99.90
38090;DHT22;23904;52.322;10.232;2023-06-24T07:13:02;18.00;99.90
38090;DHT22;23904;52.322;10.232;2023-06-24T07:15:28;18.00;99.90
38090;DHT22;23904;52.322;10.232;2023-06-24T07:17:54;18.00;99.90
38090;DHT22;23904;52.322;10.232;2023-06-24T07:20:21;18.10;99.90
38090;DHT22;23904;52.322;10.232;2023-06-24T07:22:47;18.10;99.90
38090;DHT22;23904;52.322;10.232;2023-06-24T07:25:12;18.20;99.90
38090;DHT22;23904;52.322;10.232;2023-06-24T07:27:38;18.30;99.90
38090;DHT22;23904;52.322;10.232;2023-06-24T07:30:05;18.40;99.90
38090;DHT22;23904;52.322;10.232;2023-06-24T07:32:31;18.40;99.90
38090;DHT22;23904;52.322;10.232;2023-06-24T07:34:56;18.40;99.90
38090;DHT22;23904;52.322;10.232;2023-06-24T07:37:22;18.50;99.90
38090;DHT22;23904;52.322;10.232;2023-06-24T07:39:48;18.50;99.90
38090;DHT22;23904;52.322;10.232;2023-06-24T07:42:13;18.40;99.90
38090;DHT22;23904;52.322;10.232;2023-06-24T07:44:47;18.60;99.90
38090;DHT22;23904;52.322;10.232;2023-06-24T07:47:13;18.70;99.90
38090;DHT22;23904;52.322;10.232;2023-06-24T07:49:40;18.80;99.90
38090;DHT22;23904;52.322;10.232;2023-06-24T07:52:06;18.90;99.90
38090;DHT22;23904;52.322;10.232;2023-06-24T07:54:32;19.10;99.90
38090;DHT22;23904;52.322;10.232;2023-06-24T07:56:59;19.10;99.90
38090;DHT22;23904;52.322;10.232;2023-06-24T07:59:25;19.10;99.90
38090;DHT22;23904;52.322;10.232;2023-06-24T08:01:50;19.30;99.90
38090;DHT22;23904;52.322;10.232;2023-06-24T08:04:16;19.50;99.90
38090;DHT22;23904;52.322;10.232;2023-06-24T08:06:41;19.60;99.90
38090;DHT22;23904;52.322;10.232;2023-06-24T08:09:07;19.50;99.90
38090;DHT22;23904;52.322;10.232;2023-06-24T08:11:33;19.50;99.90
38090;DHT22;23904;52.322;10.232;2023-06-24T08:13:58;19.70;99.90
38090;DHT22;23904;52.322;10.232;2023-06-24T08:16:24;19.90;99.90
38090;DHT22;23904;52.322;10.232;2023-06-24T08:18:49;20.10;99.90
38090;DHT22;23904;52.322;10.232;2023-06-24T08:21:15;19.90;99.90
38090;DHT22;23904;52.322;10.232;2023-06-24T08:23:40;19.90;99.90
38090;DHT22;23904;52.322;10.232;2023-06-24T08:26:06;20.00;99.90
38090;DHT22;23904;52.322;10.232;2023-06-24T08:28:33;20.10;99.90
38090;DHT22;23904;52.322;10.232;2023-06-24T08:30:58;20.20;99.90
38090;DHT22;23904;52.322;10.232;2023-06-24T08:33:24;20.30;99.90
38090;DHT22;23904;52.322;10.232;2023-06-24T08:35:50;20.60;99.90
38090;DHT22;23904;52.322;10.232;2023-06-24T08:38:15;20.70;99.90
38090;DHT22;23904;52.322;10.232;2023-06-24T08:40:42;20.70;99.90
38090;DHT22;23904;52.322;10.232;2023-06-24T08:43:09;20.70;99.90
38090;DHT22;23904;52.322;10.232;2023-06-24T08:45:35;21.00;99.90
38090;DHT22;23904;52.322;10.232;2023-06-24T08:48:00;21.40;99.90
38090;DHT22;23904;52.322;10.232;2023-06-24T08:50:33;21.80;99.90
38090;DHT22;23904;52.322;10.232;2023-06-24T08:53:00;22.00;99.90
38090;DHT22;23904;52.322;10.232;2023-06-24T08:55:29;22.20;99.90
38090;DHT22;23904;52.322;10.232;2023-06-24T08:57:56;22.70;99.90
38090;DHT22;23904;52.322;10.232;2023-06-24T09:00:22;23.50;99.90
38090;DHT22;23904;52.322;10.232;2023-06-24T09:02:48;24.30;99.90
38090;DHT22;23904;52.322;10.232;2023-06-24T09:05:13;25.10;99.90
38090;DHT22;23904;52.322;10.232;2023-06-24T09:07:39;25.90;99.90
38090;DHT22;23904;52.322;10.232;2023-06-24T09:10:04;26.70;99.90
38090;DHT22;23904;52.322;10.232;2023-06-24T09:12:34;27.40;99.90
38090;DHT22;23904;52.322;10.232;2023-06-24T09:15:00;28.10;98.70
38090;DHT22;23904;52.322;10.232;2023-06-24T09:17:25;28.90;97.80
38090;DHT22;23904;52.322;10.232;2023-06-24T09:19:51;28.60;95.00
38090;DHT22;23904;52.322;10.232;2023-06-24T09:22:17;29.00;95.10
38090;DHT22;23904;52.322;10.232;2023-06-24T09:24:45;29.50;94.10
38090;DHT22;23904;52.322;10.232;2023-06-24T09:27:13;28.90;94.20
38090;DHT22;23904;52.322;10.232;2023-06-24T09:29:41;29.40;93.60
38090;DHT22;23904;52.322;10.232;2023-06-24T09:32:07;29.90;93.50
38090;DHT22;23904;52.322;10.232;2023-06-24T09:34:34;30.50;91.00
38090;DHT22;23904;52.322;10.232;2023-06-24T09:37:00;31.30;87.50
38090;DHT22;23904;52.322;10.232;2023-06-24T09:39:27;30.80;87.60
38090;DHT22;23904;52.322;10.232;2023-06-24T09:42:00;30.90;87.60
38090;DHT22;23904;52.322;10.232;2023-06-24T09:44:27;30.50;88.90
38090;DHT22;23904;52.322;10.232;2023-06-24T09:46:54;31.00;90.00
38090;DHT22;23904;52.322;10.232;2023-06-24T09:49:23;31.00;85.20
38090;DHT22;23904;52.322;10.232;2023-06-24T09:51:57;31.60;86.60
38090;DHT22;23904;52.322;10.232;2023-06-24T09:54:25;30.80;87.10
38090;DHT22;23904;52.322;10.232;2023-06-24T09:56:54;31.20;87.40
38090;DHT22;23904;52.322;10.232;2023-06-24T09:59:20;31.40;85.30
38090;DHT22;23904;52.322;10.232;2023-06-24T10:01:47;32.70;82.40
38090;DHT22;23904;52.322;10.232;2023-06-24T10:04:17;32.60;79.40
38090;DHT22;23904;52.322;10.232;2023-06-24T10:06:43;32.60;80.10
38090;DHT22;23904;52.322;10.232;2023-06-24T10:09:09;32.80;78.30
38090;DHT22;23904;52.322;10.232;2023-06-24T10:11:36;32.30;82.60
38090;DHT22;23904;52.322;10.232;2023-06-24T10:14:01;32.00;81.80
38090;DHT22;23904;52.322;10.232;2023-06-24T10:16:27;32.00;78.70
38090;DHT22;23904;52.322;10.232;2023-06-24T10:19:00;32.40;83.30
38090;DHT22;23904;52.322;10.232;2023-06-24T10:21:44;33.30;79.60
38090;DHT22;23904;52.322;10.232;2023-06-24T10:24:27;34.00;75.30
38090;DHT22;23904;52.322;10.232;2023-06-24T10:26:53;34.00;74.80
38090;DHT22;23904;52.322;10.232;2023-06-24T10:29:30;33.90;73.50
38090;DHT22;23904;52.322;10.232;2023-06-24T10:32:04;33.80;73.30
38090;DHT22;23904;52.322;10.232;2023-06-24T10:34:34;32.60;75.60
38090;DHT22;23904;52.322;10.232;2023-06-24T10:39:50;34.10;70.50
38090;DHT22;23904;52.322;10.232;2023-06-24T10:44:57;33.00;73.60
38090;DHT22;23904;52.322;10.232;2023-06-24T10:47:24;33.00;74.10
38090;DHT22;23904;52.322;10.232;2023-06-24T10:49:51;33.00;74.40
38090;DHT22;23904;52.322;10.232;2023-06-24T10:52:19;32.80;75.00
38090;DHT22;23904;52.322;10.232;2023-06-24T10:54:46;33.30;73.10
38090;DHT22;23904;52.322;10.232;2023-06-24T10:57:12;33.30;72.40
38090;DHT22;23904;52.322;10.232;2023-06-24T10:59:44;33.60;70.30
38090;DHT22;23904;52.322;10.232;2023-06-24T11:02:22;33.80;71.20
38090;DHT22;23904;52.322;10.232;2023-06-24T11:04:50;33.80;71.30
38090;DHT22;23904;52.322;10.232;2023-06-24T11:07:18;35.00;67.20
38090;DHT22;23904;52.322;10.232;2023-06-24T11:09:52;35.30;66.10
38090;DHT22;23904;52.322;10.232;2023-06-24T11:12:22;34.20;66.80
38090;DHT22;23904;52.322;10.232;2023-06-24T11:14:59;33.40;75.90
38090;DHT22;23904;52.322;10.232;2023-06-24T11:17:27;33.40;71.90
38090;DHT22;23904;52.322;10.232;2023-06-24T11:19:53;34.40;70.40
38090;DHT22;23904;52.322;10.232;2023-06-24T11:22:19;34.30;69.50
38090;DHT22;23904;52.322;10.232;2023-06-24T11:24:45;34.60;67.30
38090;DHT22;23904;52.322;10.232;2023-06-24T11:27:10;34.90;66.40
38090;DHT22;23904;52.322;10.232;2023-06-24T11:29:36;34.90;65.80
38090;DHT22;23904;52.322;10.232;2023-06-24T11:32:02;35.50;64.10
38090;DHT22;23904;52.322;10.232;2023-06-24T11:34:29;36.40;62.20
38090;DHT22;23904;52.322;10.232;2023-06-24T11:36:55;36.30;63.90
38090;DHT22;23904;52.322;10.232;2023-06-24T11:39:22;35.70;63.20
38090;DHT22;23904;52.322;10.232;2023-06-24T11:41:52;35.10;61.90
38090;DHT22;23904;52.322;10.232;2023-06-24T11:44:23;36.10;61.80
38090;DHT22;23904;52.322;10.232;2023-06-24T11:46:49;36.60;59.40
38090;DHT22;23904;52.322;10.232;2023-06-24T11:49:15;35.80;58.70
38090;DHT22;23904;52.322;10.232;2023-06-24T11:51:48;35.60;59.80
38090;DHT22;23904;52.322;10.232;2023-06-24T11:54:17;35.20;62.10
38090;DHT22;23904;52.322;10.232;2023-06-24T11:56:50;35.40;63.30
38090;DHT22;23904;52.322;10.232;2023-06-24T11:59:19;35.30;59.20
38090;DHT22;23904;52.322;10.232;2023-06-24T12:01:56;35.10;58.80
38090;DHT22;23904;52.322;10.232;2023-06-24T12:04:28;34.40;60.90
38090;DHT22;23904;52.322;10.232;2023-06-24T12:06:55;34.40;66.10
38090;DHT22;23904;52.322;10.232;2023-06-24T12:09:22;34.50;65.00
38090;DHT22;23904;52.322;10.232;2023-06-24T12:11:47;33.80;62.10
38090;DHT22;23904;52.322;10.232;2023-06-24T12:14:13;33.60;61.70
38090;DHT22;23904;52.322;10.232;2023-06-24T12:16:39;33.50;63.60
38090;DHT22;23904;52.322;10.232;2023-06-24T12:19:08;34.10;63.30
38090;DHT22;23904;52.322;10.232;2023-06-24T12:21:35;34.70;60.40
38090;DHT22;23904;52.322;10.232;2023-06-24T12:24:04;34.30;63.70
38090;DHT22;23904;52.322;10.232;2023-06-24T12:26:31;35.10;60.00
38090;DHT22;23904;52.322;10.232;2023-06-24T12:28:57;34.50;60.10
38090;DHT22;23904;52.322;10.232;2023-06-24T12:31:23;35.00;60.90
38090;DHT22;23904;52.322;10.232;2023-06-24T12:33:50;35.90;60.20
38090;DHT22;23904;52.322;10.232;2023-06-24T12:36:17;34.90;57.20
38090;DHT22;23904;52.322;10.232;2023-06-24T12:38:46;34.50;61.80
38090;DHT22;23904;52.322;10.232;2023-06-24T12:41:12;34.00;65.20
38090;DHT22;23904;52.322;10.232;2023-06-24T12:43:37;34.50;63.90
38090;DHT22;23904;52.322;10.232;2023-06-24T12:46:03;34.00;62.90
38090;DHT22;23904;52.322;10.232;2023-06-24T12:48:28;33.20;65.90
38090;DHT22;23904;52.322;10.232;2023-06-24T12:50:54;33.20;60.50
38090;DHT22;23904;52.322;10.232;2023-06-24T12:53:21;33.00;64.50
38090;DHT22;23904;52.322;10.232;2023-06-24T12:55:47;32.20;70.20
38090;DHT22;23904;52.322;10.232;2023-06-24T12:58:14;31.50;66.60
38090;DHT22;23904;52.322;10.232;2023-06-24T13:00:40;31.20;68.60
38090;DHT22;23904;52.322;10.232;2023-06-24T13:03:06;30.60;67.40
38090;DHT22;23904;52.322;10.232;2023-06-24T13:05:31;30.20;70.30
38090;DHT22;23904;52.322;10.232;2023-06-24T13:07:57;30.40;75.60
38090;DHT22;23904;52.322;10.232;2023-06-24T13:10:22;30.30;72.00
38090;DHT22;23904;52.322;10.232;2023-06-24T13:12:48;29.90;71.50
38090;DHT22;23904;52.322;10.232;2023-06-24T13:15:14;29.50;72.50
38090;DHT22;23904;52.322;10.232;2023-06-24T13:17:39;29.00;74.00
38090;DHT22;23904;52.322;10.232;2023-06-24T13:20:06;29.20;76.30
38090;DHT22;23904;52.322;10.232;2023-06-24T13:22:32;29.40;77.50
38090;DHT22;23904;52.322;10.232;2023-06-24T13:24:57;29.50;74.20
38090;DHT22;23904;52.322;10.232;2023-06-24T13:27:23;29.40;73.20
38090;DHT22;23904;52.322;10.232;2023-06-24T13:29:49;28.90;71.90
38090;DHT22;23904;52.322;10.232;2023-06-24T13:32:14;28.70;78.10
38090;DHT22;23904;52.322;10.232;2023-06-24T13:34:40;28.20;77.20
38090;DHT22;23904;52.322;10.232;2023-06-24T13:37:05;28.20;77.60
38090;DHT22;23904;52.322;10.232;2023-06-24T13:39:31;28.10;77.10
38090;DHT22;23904;52.322;10.232;2023-06-24T13:41:57;28.00;75.80
38090;DHT22;23904;52.322;10.232;2023-06-24T13:44:24;27.70;80.30
38090;DHT22;23904;52.322;10.232;2023-06-24T13:46:50;27.70;80.20
38090;DHT22;23904;52.322;10.232;2023-06-24T13:49:17;27.70;78.70
38090;DHT22;23904;52.322;10.232;2023-06-24T13:51:43;27.60;79.50
38090;DHT22;23904;52.322;10.232;2023-06-24T13:54:09;27.70;81.50
38090;DHT22;23904;52.322;10.232;2023-06-24T13:56:34;27.70;82.10
38090;DHT22;23904;52.322;10.232;2023-06-24T13:59:00;27.70;78.30
38090;DHT22;23904;52.322;10.232;2023-06-24T14:01:26;27.40;78.50
38090;DHT22;23904;52.322;10.232;2023-06-24T14:03:54;27.20;79.20
38090;DHT22;23904;52.322;10.232;2023-06-24T14:06:22;27.20;82.90
38090;DHT22;23904;52.322;10.232;2023-06-24T14:08:49;27.30;82.00
38090;DHT22;23904;52.322;10.232;2023-06-24T14:11:15;27.40;79.60
38090;DHT22;23904;52.322;10.232;2023-06-24T14:13:41;27.60;79.00
38090;DHT22;23904;52.322;10.232;2023-06-24T14:16:08;27.50;80.10
38090;DHT22;23904;52.322;10.232;2023-06-24T14:18:35;27.20;80.50
38090;DHT22;23904;52.322;10.232;2023-06-24T14:21:03;27.10;79.50
38090;DHT22;23904;52.322;10.232;2023-06-24T14:23:30;27.10;80.80
38090;DHT22;23904;52.322;10.232;2023-06-24T14:25:56;27.30;82.40
38090;DHT22;23904;52.322;10.232;2023-06-24T14:28:22;27.50;78.90
38090;DHT22;23904;52.322;10.232;2023-06-24T14:30:48;27.80;81.70
38090;DHT22;23904;52.322;10.232;2023-06-24T14:33:14;28.00;76.80
38090;DHT22;23904;52.322;10.232;2023-06-24T14:35:40;28.00;79.10
38090;DHT22;23904;52.322;10.232;2023-06-24T14:38:06;28.30;76.00
38090;DHT22;23904;52.322;10.232;2023-06-24T14:40:32;28.50;75.80
38090;DHT22;23904;52.322;10.232;2023-06-24T14:42:58;28.50;74.40
38090;DHT22;23904;52.322;10.232;2023-06-24T14:45:24;28.50;73.80
38090;DHT22;23904;52.322;10.232;2023-06-24T14:47:49;28.10;79.00
38090;DHT22;23904;52.322;10.232;2023-06-24T14:50:15;27.70;77.80
38090;DHT22;23904;52.322;10.232;2023-06-24T14:52:41;27.20;77.50
38090;DHT22;23904;52.322;10.232;2023-06-24T14:55:07;26.80;79.10
38090;DHT22;23904;52.322;10.232;2023-06-24T14:57:32;26.60;81.60
38090;DHT22;23904;52.322;10.232;2023-06-24T14:59:58;26.50;83.10
38090;DHT22;23904;52.322;10.232;2023-06-24T15:02:24;26.60;82.20
38090;DHT22;23904;52.322;10.232;2023-06-24T15:04:51;26.80;80.70
38090;DHT22;23904;52.322;10.232;2023-06-24T15:07:17;27.20;79.60
38090;DHT22;23904;52.322;10.232;2023-06-24T15:09:42;27.40;81.40
38090;DHT22;23904;52.322;10.232;2023-06-24T15:12:08;27.40;79.70
38090;DHT22;23904;52.322;10.232;2023-06-24T15:14:34;27.50;79.00
38090;DHT22;23904;52.322;10.232;2023-06-24T15:17:00;27.60;79.20
38090;DHT22;23904;52.322;10.232;2023-06-24T15:19:25;27.60;79.40
38090;DHT22;23904;52.322;10.232;2023-06-24T15:21:51;27.40;78.50
38090;DHT22;23904;52.322;10.232;2023-06-24T15:24:16;27.30;81.30